Time;durP1;ratioP1;P1;durP2;ratioP2;P2;SDS_P1;SDS_P2;PMS_P1;PMS_P2;Temp;Humidity;BMP_temperature;BMP_pressure;BME280_temperature;BME280_humidity;BME280_pressure;Samples;Min_cycle;Max_cycle;Signal;HPM_P1;HPM_P2
2021/10/07 00:00:14;;;;;;;;;;;;;;;19.85;57.72;100716.25;2083950;28;19966;-43
2021/10/07 00:01:14;;;;;;;;;;;;;;;19.86;57.68;100715.22;2082628;28;19987;-43
2021/10/07 00:02:14;;;;;;;;;;;;;;;19.86;57.74;100723.44;2083334;28;20256;-43
2021/10/07 00:03:14;;;;;;;;;;;;;;;19.85;57.76;100721.72;2081667;28;19932;-43
2021/10/07 00:04:15;;;;;;;;;;;;;;;19.86;57.60;100720.72;2083944;28;20285;-43
2021/10/07 00:05:15;;;;;;;;;;;;;;;19.85;57.79;100717.13;2083436;28;19916;-43
2021/10/07 00:06:16;;;;;;;;;;;;;;;19.85;57.71;100716.25;2084443;28;19915;-43
2021/10/07 00:07:16;;;;;;;;;;;;;;;19.85;57.56;100716.25;2083058;28;20463;-44
2021/10/07 00:08:16;;;;;;;;;;;;;;;19.85;57.56;100716.25;2084721;28;19924;-42
2021/10/07 00:09:17;;;;;;;;;;;;;;;19.84;57.72;100726.34;2081578;28;20365;-43
2021/10/07 00:10:17;;;;;;;;;;;;;;;19.85;57.59;100716.25;2084102;28;19959;-43
2021/10/07 00:11:17;;;;;;;;;;;;;;;19.86;57.65;100728.91;2084711;28;20303;-43
2021/10/07 00:12:18;;;;;;;;;;;;;;;19.85;57.71;100721.72;2083860;28;19916;-42
2021/10/07 00:13:18;;;;;;;;;;;;;;;19.85;57.69;100727.19;2084198;28;20270;-43
2021/10/07 00:14:18;;;;;;;;;;;;;;;19.85;57.67;100729.94;2082495;28;19916;-43
2021/10/07 00:15:19;;;;;;;;;;;;;;;19.83;57.65;100719.13;2085308;28;20742;-42
2021/10/07 00:16:19;;;;;;;;;;;;;;;19.83;57.65;100724.59;2087336;28;20020;-42
2021/10/07 00:17:19;;;;;;;;;;;;;;;19.84;57.57;100726.34;2073200;28;19920;-42
2021/10/07 00:18:20;;;;;;;;;;;;;;;19.84;57.64;100726.34;2066118;28;20327;-43
2021/10/07 00:19:20;;;;;;;;;;;;;;;19.84;57.58;100726.34;2073887;28;20365;-43
2021/10/07 00:20:21;;;;;;;;;;;;;;;19.84;57.65;100725.44;2085213;28;19908;-43
2021/10/07 00:21:21;;;;;;;;;;;;;;;19.83;57.62;100712.78;2076174;28;19921;-43
2021/10/07 00:22:21;;;;;;;;;;;;;;;19.84;57.51;100719.97;2076800;28;19959;-43
2021/10/07 00:23:26;;;;;;;;;;;;;;;19.83;57.58;100718.25;2084832;28;19934;-42
2021/10/07 00:24:26;;;;;;;;;;;;;;;19.83;57.57;100712.78;2085900;28;19916;-44
2021/10/07 00:25:27;;;;;;;;;;;;;;;19.83;57.65;100713.66;2085341;28;20690;-44
2021/10/07 00:26:27;;;;;;;;;;;;;;;19.82;57.63;100709.19;2089543;28;19925;-43
2021/10/07 00:27:27;;;;;;;;;;;;;;;19.83;57.59;100712.78;2079967;28;19974;-43
2021/10/07 00:28:31;;;;;;;;;;;;;;;19.83;57.42;100708.19;2085744;28;19916;-44
2021/10/07 00:29:49;;;;;;;;;;;;;;;19.82;57.48;100706.47;2082125;28;19995;-44
2021/10/07 00:30:52;;;;;;;;;;;;;;;19.82;57.46;100705.56;2085043;28;20350;-44
2021/10/07 00:31:57;;;;;;;;;;;;;;;19.83;57.60;100707.31;2080525;28;19930;-43
2021/10/07 00:34:14;;;;;;;;;;;;;;;19.81;57.60;100699.25;2087211;28;19923;-43
2021/10/07 00:36:39;;;;;;;;;;;;;;;19.82;57.41;100700.97;2086533;28;19982;-43
2021/10/07 00:39:05;;;;;;;;;;;;;;;19.82;57.46;100705.56;2082155;28;19991;-44
2021/10/07 00:40:06;;;;;;;;;;;;;;;19.83;57.59;100699.09;2084117;28;20307;-44
2021/10/07 00:41:06;;;;;;;;;;;;;;;19.82;57.39;100700.09;2084363;28;19999;-44
2021/10/07 00:42:07;;;;;;;;;;;;;;;19.82;57.36;100702.84;2087368;28;20465;-44
2021/10/07 00:43:07;;;;;;;;;;;;;;;19.82;57.49;100700.09;2083847;28;19917;-44
2021/10/07 00:44:08;;;;;;;;;;;;;;;19.82;57.50;100700.09;2076633;28;19952;-43
2021/10/07 00:45:09;;;;;;;;;;;;;;;19.81;57.44;100701.13;2077851;28;19927;-44
2021/10/07 00:46:09;;;;;;;;;;;;;;;19.82;57.53;100700.09;2086891;28;20162;-43
2021/10/07 00:47:10;;;;;;;;;;;;;;;19.81;57.45;100699.25;2084480;28;19919;-44
2021/10/07 00:48:11;;;;;;;;;;;;;;;19.82;57.49;100694.63;2089576;28;20787;-44
2021/10/07 00:49:11;;;;;;;;;;;;;;;19.82;57.53;100694.63;2084373;28;19908;-44
2021/10/07 00:50:12;;;;;;;;;;;;;;;19.81;57.56;100688.28;2085691;28;20341;-43
2021/10/07 00:51:12;;;;;;;;;;;;;;;19.81;57.45;100690.16;2084587;28;20002;-44
2021/10/07 00:52:14;;;;;;;;;;;;;;;19.81;57.46;100692.91;2084878;28;19950;-44
2021/10/07 00:53:16;;;;;;;;;;;;;;;19.81;57.53;100695.63;2086653;28;19919;-44
2021/10/07 00:54:17;;;;;;;;;;;;;;;19.80;57.60;100692.06;2085593;28;19926;-43
2021/10/07 00:55:18;;;;;;;;;;;;;;;19.80;57.62;100677.50;2086350;28;19921;-44
2021/10/07 00:56:19;;;;;;;;;;;;;;;19.81;57.46;100690.16;2085078;28;19916;-44
2021/10/07 00:57:20;;;;;;;;;;;;;;;19.80;57.56;100692.06;2083264;28;19920;-43
2021/10/07 00:58:21;;;;;;;;;;;;;;;19.81;57.52;100692.91;2085921;28;20078;-44
2021/10/07 00:59:22;;;;;;;;;;;;;;;19.80;57.37;100699.41;2083740;28;19970;-45
2021/10/07 01:00:22;;;;;;;;;;;;;;;19.80;57.47;100699.41;2086048;28;20414;-44
2021/10/07 01:01:22;;;;;;;;;;;;;;;19.79;57.53;100693.03;2085299;28;19917;-44
2021/10/07 01:02:23;;;;;;;;;;;;;;;19.81;57.34;100692.91;2083284;28;19927;-44
2021/10/07 01:03:23;;;;;;;;;;;;;;;19.81;57.38;100692.91;2081524;28;20307;-44
2021/10/07 01:04:23;;;;;;;;;;;;;;;19.80;57.57;100685.72;2083320;28;19913;-44
2021/10/07 01:05:24;;;;;;;;;;;;;;;19.80;57.50;100693.94;2086101;28;19928;-44
2021/10/07 01:06:24;;;;;;;;;;;;;;;19.79;57.57;100689.44;2084385;28;19984;-43
2021/10/07 01:07:26;;;;;;;;;;;;;;;19.79;57.35;100690.31;2088182;28;19931;-44
2021/10/07 01:08:26;;;;;;;;;;;;;;;19.78;57.54;100683.13;2090005;28;20144;-43
2021/10/07 01:09:30;;;;;;;;;;;;;;;19.79;57.64;100683.97;2087261;28;19954;-43
2021/10/07 01:10:30;;;;;;;;;;;;;;;19.78;57.46;100683.13;2083214;28;19919;-43
2021/10/07 01:11:31;;;;;;;;;;;;;;;19.77;57.40;100681.41;2085334;28;20641;-44
2021/10/07 01:12:31;;;;;;;;;;;;;;;19.78;57.55;100679.50;2085172;28;19916;-45
2021/10/07 01:13:36;;;;;;;;;;;;;;;19.79;57.56;100673.03;2086942;28;20022;-44
2021/10/07 01:14:42;;;;;;;;;;;;;;;19.78;57.53;100682.25;2082078;28;20518;-44
2021/10/07 01:15:42;;;;;;;;;;;;;;;19.79;57.39;100678.50;2084445;28;19912;-44
2021/10/07 01:16:43;;;;;;;;;;;;;;;19.78;57.48;100671.31;2088536;28;20504;-43
2021/10/07 01:17:43;;;;;;;;;;;;;;;19.78;57.45;100676.78;2087963;28;20138;-44
2021/10/07 01:18:44;;;;;;;;;;;;;;;19.78;57.42;100676.78;2089127;28;19939;-44
2021/10/07 01:19:46;;;;;;;;;;;;;;;19.78;57.59;100680.38;2084769;28;20008;-44
2021/10/07 01:20:46;;;;;;;;;;;;;;;19.77;57.54;100672.28;2086404;28;20369;-43
2021/10/07 01:21:46;;;;;;;;;;;;;;;19.78;57.38;100671.31;2078129;28;19956;-44
2021/10/07 01:22:47;;;;;;;;;;;;;;;19.78;57.50;100674.03;2075342;28;19917;-44
2021/10/07 01:23:48;;;;;;;;;;;;;;;19.77;57.42;100669.56;2084687;28;20405;-44
2021/10/07 01:24:49;;;;;;;;;;;;;;;19.77;57.44;100669.56;2082716;28;19920;-44
2021/10/07 01:25:49;;;;;;;;;;;;;;;19.77;57.46;100675.03;2083448;28;19942;-43
2021/10/07 01:26:50;;;;;;;;;;;;;;;19.77;57.51;100664.09;2085058;28;19927;-44
2021/10/07 01:27:55;;;;;;;;;;;;;;;19.76;57.49;100662.38;2081899;28;19916;-44
2021/10/07 01:28:55;;;;;;;;;;;;;;;19.77;57.40;100664.09;2082975;28;19916;-44
2021/10/07 01:29:57;;;;;;;;;;;;;;;19.77;57.46;100669.56;2079486;28;19940;-44
2021/10/07 01:30:57;;;;;;;;;;;;;;;19.76;57.51;100668.69;2084505;28;19946;-44
2021/10/07 01:31:58;;;;;;;;;;;;;;;19.77;57.37;100664.09;2084731;28;19982;-43
2021/10/07 01:32:58;;;;;;;;;;;;;;;19.76;57.39;100674.19;2085782;28;19917;-44
2021/10/07 01:33:58;;;;;;;;;;;;;;;19.76;57.41;100670.59;2084234;28;20015;-44
2021/10/07 01:34:58;;;;;;;;;;;;;;;19.76;57.48;100678.78;2085706;28;20023;-44
2021/10/07 01:35:59;;;;;;;;;;;;;;;19.76;57.50;100667.84;2084319;28;19955;-44
2021/10/07 01:36:59;;;;;;;;;;;;;;;19.76;57.32;100668.69;2074856;28;19986;-44
2021/10/07 01:38:00;;;;;;;;;;;;;;;19.76;57.32;100662.38;2074740;28;19935;-43
2021/10/07 01:39:00;;;;;;;;;;;;;;;19.76;57.49;100663.22;2084719;28;20158;-44
2021/10/07 01:40:01;;;;;;;;;;;;;;;19.76;57.50;100665.09;2085002;28;19917;-44
2021/10/07 01:41:02;;;;;;;;;;;;;;;19.76;57.55;100665.09;2085470;28;20364;-44
2021/10/07 01:42:02;;;;;;;;;;;;;;;19.76;57.38;100667.84;2085991;28;19924;-43
2021/10/07 01:43:03;;;;;;;;;;;;;;;19.76;57.48;100657.75;2083477;28;19916;-44
2021/10/07 01:44:03;;;;;;;;;;;;;;;19.76;57.52;100659.63;2083728;28;20372;-44
2021/10/07 01:45:04;;;;;;;;;;;;;;;19.75;57.52;100656.03;2085755;28;19917;-44
2021/10/07 01:46:04;;;;;;;;;;;;;;;19.75;57.39;100650.56;2085070;28;19923;-43
2021/10/07 01:47:04;;;;;;;;;;;;;;;19.74;57.35;100650.69;2086598;28;19966;-44
2021/10/07 01:48:05;;;;;;;;;;;;;;;19.75;57.49;100655.19;2084253;28;20128;-44
2021/10/07 01:49:06;;;;;;;;;;;;;;;19.75;57.34;100655.19;2075903;28;19995;-44
2021/10/07 01:50:08;;;;;;;;;;;;;;;19.74;57.54;100643.34;2086447;28;19928;-44
2021/10/07 01:51:08;;;;;;;;;;;;;;;19.75;57.52;100644.25;2083646;28;19917;-44
2021/10/07 01:52:08;;;;;;;;;;;;;;;19.74;57.39;100643.34;2085100;28;19919;-44
2021/10/07 01:53:09;;;;;;;;;;;;;;;19.74;57.61;100647.97;2085013;28;20267;-43
2021/10/07 01:54:09;;;;;;;;;;;;;;;19.74;57.53;100650.69;2081331;28;20152;-44
2021/10/07 01:55:10;;;;;;;;;;;;;;;19.74;57.41;100654.28;2086092;28;19978;-44
2021/10/07 01:56:11;;;;;;;;;;;;;;;19.74;57.44;100645.22;2082586;28;20346;-44
2021/10/07 01:57:11;;;;;;;;;;;;;;;19.74;57.47;100647.97;2085730;28;19991;-44
2021/10/07 01:58:11;;;;;;;;;;;;;;;19.74;57.42;100647.97;2085707;28;20520;-44
2021/10/07 01:59:12;;;;;;;;;;;;;;;19.74;57.55;100637.03;2084154;28;20339;-44
2021/10/07 02:00:13;;;;;;;;;;;;;;;19.74;57.51;100645.22;2085976;28;19913;-44
2021/10/07 02:01:13;;;;;;;;;;;;;;;19.74;57.58;100654.28;2081633;28;19946;-44
2021/10/07 02:02:13;;;;;;;;;;;;;;;19.73;57.51;100647.09;2076890;28;19927;-43
2021/10/07 02:03:14;;;;;;;;;;;;;;;19.74;57.50;100645.22;2079144;28;19927;-44
2021/10/07 02:04:14;;;;;;;;;;;;;;;19.73;57.41;100644.38;2076274;28;20023;-44
2021/10/07 02:05:15;;;;;;;;;;;;;;;19.73;57.45;100641.63;2082763;28;19912;-44
2021/10/07 02:06:15;;;;;;;;;;;;;;;19.74;57.59;100642.50;2084656;28;19916;-44
2021/10/07 02:07:15;;;;;;;;;;;;;;;19.73;57.46;100644.38;2085707;28;19927;-42
2021/10/07 02:08:16;;;;;;;;;;;;;;;19.74;57.45;100645.22;2087847;28;19925;-43
2021/10/07 02:09:16;;;;;;;;;;;;;;;19.73;57.56;100641.63;2084560;28;19917;-43
2021/10/07 02:10:17;;;;;;;;;;;;;;;19.73;57.47;100640.78;2084178;28;20048;-42
2021/10/07 02:11:17;;;;;;;;;;;;;;;19.73;57.56;100640.78;2084698;28;19959;-43
2021/10/07 02:12:17;;;;;;;;;;;;;;;19.73;57.56;100640.78;2083152;28;19920;-42
2021/10/07 02:13:18;;;;;;;;;;;;;;;19.72;57.51;100639.91;2086109;28;19919;-42
2021/10/07 02:14:18;;;;;;;;;;;;;;;19.72;57.52;100639.03;2083513;28;20566;-43
2021/10/07 02:15:18;;;;;;;;;;;;;;;19.73;57.42;100638.03;2083514;28;19920;-43
2021/10/07 02:16:19;;;;;;;;;;;;;;;19.71;57.58;100624.50;2086118;28;19924;-43
2021/10/07 02:17:19;;;;;;;;;;;;;;;19.73;57.59;100627.09;2083504;28;19923;-42
2021/10/07 02:18:19;;;;;;;;;;;;;;;19.72;57.63;100622.63;2087520;28;19915;-42
2021/10/07 02:19:19;;;;;;;;;;;;;;;19.72;57.56;100628.09;2084496;28;19926;-42
2021/10/07 02:20:20;;;;;;;;;;;;;;;19.71;57.54;100627.22;2082927;28;20584;-42
2021/10/07 02:21:21;;;;;;;;;;;;;;;19.72;57.56;100628.09;2088230;28;20622;-43
2021/10/07 02:22:21;;;;;;;;;;;;;;;19.71;57.45;100632.72;2083749;28;20391;-43
2021/10/07 02:23:21;;;;;;;;;;;;;;;19.71;57.45;100638.19;2085888;28;19927;-43
2021/10/07 02:24:22;;;;;;;;;;;;;;;19.70;57.47;100634.59;2084745;28;19927;-42
2021/10/07 02:25:22;;;;;;;;;;;;;;;19.70;57.44;100637.31;2084237;28;20378;-43
2021/10/07 02:26:22;;;;;;;;;;;;;;;19.70;57.58;100623.66;2084636;28;19924;-43
2021/10/07 02:27:23;;;;;;;;;;;;;;;19.70;57.61;100626.38;2083796;28;20361;-43
2021/10/07 02:28:23;;;;;;;;;;;;;;;19.71;57.54;100635.44;2085013;28;20457;-43
2021/10/07 02:29:23;;;;;;;;;;;;;;;19.70;57.54;100636.47;2085781;28;19916;-43
2021/10/07 02:30:24;;;;;;;;;;;;;;;19.70;57.50;100637.31;2084346;28;20170;-43
2021/10/07 02:31:24;;;;;;;;;;;;;;;19.70;57.50;100642.78;2087506;28;19919;-43
2021/10/07 02:32:24;;;;;;;;;;;;;;;19.70;57.56;100631.00;2084381;28;19916;-43
2021/10/07 02:33:25;;;;;;;;;;;;;;;19.70;57.47;100636.47;2080372;28;20814;-43
2021/10/07 02:34:26;;;;;;;;;;;;;;;19.69;57.41;100630.09;2078777;28;20329;-43
2021/10/07 02:35:26;;;;;;;;;;;;;;;19.68;57.46;100625.66;2084023;28;19921;-43
2021/10/07 02:36:26;;;;;;;;;;;;;;;19.68;57.41;100631.13;2084684;28;19927;-43
2021/10/07 02:37:27;;;;;;;;;;;;;;;19.69;57.48;100630.09;2081861;28;19913;-43
2021/10/07 02:38:27;;;;;;;;;;;;;;;19.68;57.51;100622.91;2073866;28;20455;-43
2021/10/07 02:39:27;;;;;;;;;;;;;;;19.68;57.51;100622.91;2075330;28;20500;-42
2021/10/07 02:40:28;;;;;;;;;;;;;;;19.68;57.53;100628.38;2088059;28;19924;-43
2021/10/07 02:41:28;;;;;;;;;;;;;;;19.68;57.47;100628.38;2083497;28;19962;-43
2021/10/07 02:42:29;;;;;;;;;;;;;;;19.69;57.54;100629.25;2084041;28;20043;-43
2021/10/07 02:43:29;;;;;;;;;;;;;;;19.69;57.45;100630.09;2084125;28;19912;-42
2021/10/07 02:44:29;;;;;;;;;;;;;;;19.69;57.48;100627.38;2084518;28;20195;-42
2021/10/07 02:45:30;;;;;;;;;;;;;;;19.68;57.42;100627.53;2085891;28;19983;-43
2021/10/07 02:46:30;;;;;;;;;;;;;;;19.68;57.48;100622.91;2084063;28;20259;-42
2021/10/07 02:47:30;;;;;;;;;;;;;;;19.68;57.39;100628.38;2081530;28;19917;-43
2021/10/07 02:48:31;;;;;;;;;;;;;;;19.68;57.54;100622.91;2084501;28;19916;-43
2021/10/07 02:49:31;;;;;;;;;;;;;;;19.68;57.29;100622.91;2086790;28;19947;-42
2021/10/07 02:50:31;;;;;;;;;;;;;;;19.67;57.44;100621.19;2084474;28;19940;-42
2021/10/07 02:51:32;;;;;;;;;;;;;;;19.68;57.29;100622.91;2085587;28;19912;-43
2021/10/07 02:52:32;;;;;;;;;;;;;;;19.68;57.43;100620.19;2084582;28;19904;-43
2021/10/07 02:53:33;;;;;;;;;;;;;;;19.68;57.46;100622.06;2076187;28;19904;-42
2021/10/07 02:54:33;;;;;;;;;;;;;;;19.68;57.37;100622.91;2073243;28;19992;-42
2021/10/07 02:55:33;;;;;;;;;;;;;;;19.68;57.49;100619.31;2085947;28;20341;-43
2021/10/07 02:56:34;;;;;;;;;;;;;;;19.67;57.50;100625.75;2083319;28;20239;-42
2021/10/07 02:57:34;;;;;;;;;;;;;;;19.68;57.40;100622.91;2084447;28;19967;-43
2021/10/07 02:58:36;;;;;;;;;;;;;;;19.67;57.52;100621.19;2085248;28;19920;-43
2021/10/07 02:59:36;;;;;;;;;;;;;;;19.67;57.35;100621.19;2083202;28;20439;-42
2021/10/07 03:00:36;;;;;;;;;;;;;;;19.66;57.39;100613.94;2085800;28;20252;-42
2021/10/07 03:01:37;;;;;;;;;;;;;;;19.67;57.48;100621.19;2087392;28;20009;-43
2021/10/07 03:02:37;;;;;;;;;;;;;;;19.67;57.46;100625.75;2083842;28;19951;-43
2021/10/07 03:03:37;;;;;;;;;;;;;;;19.67;57.43;100626.66;2085816;28;19962;-42
2021/10/07 03:04:38;;;;;;;;;;;;;;;19.67;57.36;100621.19;2083716;28;20325;-43
2021/10/07 03:05:38;;;;;;;;;;;;;;;19.66;57.31;100624.88;2086700;28;19917;-42
2021/10/07 03:06:38;;;;;;;;;;;;;;;19.66;57.34;100616.69;2083197;28;20335;-43
2021/10/07 03:07:39;;;;;;;;;;;;;;;19.66;57.49;100627.63;2086140;28;19920;-43
2021/10/07 03:08:39;;;;;;;;;;;;;;;19.66;57.41;100627.63;2084180;28;20015;-43
2021/10/07 03:09:40;;;;;;;;;;;;;;;19.66;57.41;100624.03;2078324;28;19917;-42
2021/10/07 03:10:41;;;;;;;;;;;;;;;19.65;57.45;100623.16;2074402;28;20342;-44
2021/10/07 03:11:41;;;;;;;;;;;;;;;19.65;57.31;100625.91;2085268;28;19939;-43
2021/10/07 03:12:42;;;;;;;;;;;;;;;19.66;57.50;100624.88;2072566;28;19913;-43
2021/10/07 03:13:42;;;;;;;;;;;;;;;19.66;57.34;100624.88;2074563;28;19917;-42
2021/10/07 03:14:43;;;;;;;;;;;;;;;19.66;57.33;100630.34;2083126;28;19969;-43
2021/10/07 03:15:44;;;;;;;;;;;;;;;19.67;57.21;100623.00;2083889;28;19917;-43
2021/10/07 03:16:44;;;;;;;;;;;;;;;19.65;57.37;100628.63;2083194;28;19916;-42
2021/10/07 03:17:44;;;;;;;;;;;;;;;19.66;57.35;100630.34;2075574;28;19952;-43
2021/10/07 03:18:45;;;;;;;;;;;;;;;19.65;57.38;100620.44;2076213;28;19932;-43
2021/10/07 03:19:45;;;;;;;;;;;;;;;19.64;57.37;100621.41;2081536;28;19924;-43
2021/10/07 03:20:45;;;;;;;;;;;;;;;19.65;57.37;100625.91;2085417;28;19916;-43
2021/10/07 03:21:45;;;;;;;;;;;;;;;19.65;57.27;100625.03;2084351;28;19993;-44
2021/10/07 03:22:46;;;;;;;;;;;;;;;19.64;57.44;100626.88;2086714;28;20708;-44
2021/10/07 03:23:46;;;;;;;;;;;;;;;19.64;57.44;100626.88;2083679;28;20138;-44
2021/10/07 03:24:47;;;;;;;;;;;;;;;19.64;57.33;100632.34;2080734;28;19988;-43
2021/10/07 03:25:47;;;;;;;;;;;;;;;19.65;57.17;100634.09;2082438;28;20384;-44
2021/10/07 03:26:47;;;;;;;;;;;;;;;19.64;57.32;100632.34;2085463;28;19916;-43
2021/10/07 03:27:47;;;;;;;;;;;;;;;19.64;57.24;100629.63;2082708;28;19916;-43
2021/10/07 03:28:48;;;;;;;;;;;;;;;19.64;57.31;100626.03;2084565;28;20182;-44
2021/10/07 03:29:48;;;;;;;;;;;;;;;19.65;57.41;100633.25;2085156;28;19948;-44
2021/10/07 03:30:48;;;;;;;;;;;;;;;19.64;57.40;100626.88;2083432;28;19920;-44
2021/10/07 03:31:49;;;;;;;;;;;;;;;19.64;57.31;100631.50;2084652;28;19947;-44
2021/10/07 03:32:49;;;;;;;;;;;;;;;19.64;57.28;100626.03;2084446;28;19909;-44
2021/10/07 03:33:50;;;;;;;;;;;;;;;19.64;57.33;100637.81;2073950;28;19917;-44
2021/10/07 03:34:50;;;;;;;;;;;;;;;19.63;57.44;100627.91;2076045;28;20250;-44
2021/10/07 03:35:51;;;;;;;;;;;;;;;19.64;57.26;100626.88;2083429;28;20014;-44
2021/10/07 03:36:51;;;;;;;;;;;;;;;19.63;57.40;100630.66;2083919;28;20692;-44
2021/10/07 03:37:51;;;;;;;;;;;;;;;19.63;57.38;100636.13;2084660;28;19916;-44
2021/10/07 03:38:52;;;;;;;;;;;;;;;19.62;57.25;100637.13;2075460;28;19924;-44
2021/10/07 03:39:52;;;;;;;;;;;;;;;19.63;57.23;100636.13;2076058;28;19924;-43
2021/10/07 03:40:52;;;;;;;;;;;;;;;19.62;57.19;100634.41;2083490;28;19912;-44
2021/10/07 03:41:53;;;;;;;;;;;;;;;19.63;57.20;100635.25;2084511;28;19942;-44
2021/10/07 03:42:53;;;;;;;;;;;;;;;19.62;57.34;100631.66;2075450;28;20118;-44
2021/10/07 03:43:53;;;;;;;;;;;;;;;19.63;57.50;100633.38;2074390;28;20684;-44
2021/10/07 03:44:54;;;;;;;;;;;;;;;19.63;57.46;100638.00;2086150;28;19956;-43
2021/10/07 03:45:54;;;;;;;;;;;;;;;19.62;57.37;100639.88;2089347;28;19912;-44
2021/10/07 03:46:54;;;;;;;;;;;;;;;19.63;57.52;100638.00;2085177;28;20602;-43
2021/10/07 03:47:55;;;;;;;;;;;;;;;19.63;57.43;100636.13;2084560;28;20476;-44
2021/10/07 03:48:55;;;;;;;;;;;;;;;19.63;57.67;100635.25;2084138;28;19924;-44
2021/10/07 03:49:58;;;;;;;;;;;;;;;19.62;57.53;100634.41;2084545;28;19922;-43
2021/10/07 03:50:59;;;;;;;;;;;;;;;19.62;57.46;100642.59;2085877;28;20420;-44
2021/10/07 03:51:59;;;;;;;;;;;;;;;19.62;57.35;100639.88;2081345;28;20015;-44
2021/10/07 03:53:00;;;;;;;;;;;;;;;19.62;57.44;100636.25;2084709;28;20572;-44
2021/10/07 03:54:00;;;;;;;;;;;;;;;19.62;57.32;100634.41;2079077;28;20444;-44
2021/10/07 03:55:01;;;;;;;;;;;;;;;19.61;57.46;100632.66;2083584;28;19955;-44
2021/10/07 03:56:01;;;;;;;;;;;;;;;19.60;57.48;100630.94;2094667;28;20615;-44
2021/10/07 03:57:02;;;;;;;;;;;;;;;19.62;57.37;100630.78;2082217;28;19920;-44
2021/10/07 03:58:02;;;;;;;;;;;;;;;19.60;57.40;100619.09;2085797;28;19905;-44
2021/10/07 03:59:02;;;;;;;;;;;;;;;19.61;57.46;100627.19;2082536;28;20186;-43
2021/10/07 04:00:04;;;;;;;;;;;;;;;19.61;57.41;100631.78;2084388;28;19916;-43
2021/10/07 04:01:04;;;;;;;;;;;;;;;19.62;57.41;100628.03;2084872;28;20239;-44
2021/10/07 04:02:04;;;;;;;;;;;;;;;19.60;57.53;100630.03;2083590;28;19912;-43
2021/10/07 04:03:05;;;;;;;;;;;;;;;19.59;57.41;100629.19;2084453;28;20032;-44
2021/10/07 04:04:05;;;;;;;;;;;;;;;19.61;57.49;100631.78;2083211;28;19920;-44
2021/10/07 04:05:06;;;;;;;;;;;;;;;19.60;57.54;100628.19;2083430;28;19925;-44
2021/10/07 04:06:06;;;;;;;;;;;;;;;19.60;57.45;100630.94;2084657;28;20381;-44
2021/10/07 04:07:08;;;;;;;;;;;;;;;19.59;57.50;100629.19;2072897;28;19920;-44
2021/10/07 04:08:08;;;;;;;;;;;;;;;19.59;57.57;100623.72;2069642;28;19925;-43
2021/10/07 04:09:08;;;;;;;;;;;;;;;19.59;57.60;100623.72;2083883;28;19954;-44
2021/10/07 04:10:09;;;;;;;;;;;;;;;19.60;57.42;100630.03;2083446;28;19916;-44
2021/10/07 04:11:09;;;;;;;;;;;;;;;19.59;57.57;100631.91;2084397;28;20170;-43
2021/10/07 04:12:10;;;;;;;;;;;;;;;19.59;57.47;100629.19;2081907;28;19970;-43
2021/10/07 04:13:10;;;;;;;;;;;;;;;19.60;57.49;100627.31;2075326;28;19921;-44
2021/10/07 04:14:10;;;;;;;;;;;;;;;19.59;57.46;100626.44;2075763;28;19948;-44
2021/10/07 04:15:11;;;;;;;;;;;;;;;19.59;57.47;100629.19;2083819;28;19920;-44
2021/10/07 04:16:11;;;;;;;;;;;;;;;19.59;57.42;100629.19;2088325;28;19939;-44
2021/10/07 04:17:11;;;;;;;;;;;;;;;19.58;57.48;100635.66;2085145;28;19920;-44
2021/10/07 04:18:13;;;;;;;;;;;;;;;19.59;57.42;100640.13;2084667;28;20093;-44
2021/10/07 04:19:13;;;;;;;;;;;;;;;19.58;57.49;100632.09;2084060;28;19927;-43
2021/10/07 04:20:14;;;;;;;;;;;;;;;19.58;57.38;100632.94;2083054;28;19927;-43
2021/10/07 04:21:16;;;;;;;;;;;;;;;19.59;57.33;100628.31;2083462;28;20007;-44
2021/10/07 04:22:17;;;;;;;;;;;;;;;19.58;57.35;100638.41;2079731;28;19908;-44
2021/10/07 04:23:18;;;;;;;;;;;;;;;19.58;57.47;100632.94;2086037;28;19944;-44
2021/10/07 04:24:18;;;;;;;;;;;;;;;19.58;57.34;100626.59;2082893;28;19973;-43
2021/10/07 04:25:18;;;;;;;;;;;;;;;19.58;57.31;100626.59;2083456;28;19916;-44
2021/10/07 04:26:19;;;;;;;;;;;;;;;19.57;57.41;100624.88;2082868;28;20131;-43
2021/10/07 04:27:19;;;;;;;;;;;;;;;19.58;57.48;100630.22;2084904;28;19912;-43
2021/10/07 04:28:19;;;;;;;;;;;;;;;19.58;57.39;100632.94;2083700;28;20044;-43
2021/10/07 04:29:19;;;;;;;;;;;;;;;19.57;57.44;100635.81;2080777;28;19913;-43
2021/10/07 04:30:20;;;;;;;;;;;;;;;19.57;57.50;100631.19;2076924;28;20059;-44
2021/10/07 04:31:20;;;;;;;;;;;;;;;19.57;57.65;100642.13;2074833;28;19920;-44
2021/10/07 04:32:21;;;;;;;;;;;;;;;19.57;57.53;100636.66;2072274;28;20171;-44
2021/10/07 04:33:21;;;;;;;;;;;;;;;19.57;57.51;100642.13;2083800;28;19917;-44
2021/10/07 04:34:21;;;;;;;;;;;;;;;19.57;57.43;100633.91;2083091;28;19969;-44
2021/10/07 04:35:22;;;;;;;;;;;;;;;19.58;57.50;100637.56;2084075;28;19927;-44
2021/10/07 04:36:22;;;;;;;;;;;;;;;19.56;57.43;100634.94;2073691;28;19917;-43
2021/10/07 04:37:23;;;;;;;;;;;;;;;19.57;57.52;100635.81;2075512;28;19925;-44
2021/10/07 04:38:23;;;;;;;;;;;;;;;19.56;57.49;100634.94;2085292;28;19909;-44
2021/10/07 04:39:24;;;;;;;;;;;;;;;19.56;57.61;100634.94;2081994;28;20315;-43
2021/10/07 04:40:24;;;;;;;;;;;;;;;19.56;57.74;100632.22;2085507;28;19912;-43
2021/10/07 04:41:25;;;;;;;;;;;;;;;19.57;57.71;100635.81;2084393;28;19920;-43
2021/10/07 04:42:25;;;;;;;;;;;;;;;19.57;57.63;100631.19;2083366;28;19920;-44
2021/10/07 04:43:25;;;;;;;;;;;;;;;19.57;57.67;100630.34;2083602;28;19920;-44
2021/10/07 04:44:26;;;;;;;;;;;;;;;19.57;57.73;100628.47;2080666;28;19920;-44
2021/10/07 04:45:26;;;;;;;;;;;;;;;19.56;57.66;100629.47;2083250;28;19926;-44
2021/10/07 04:46:26;;;;;;;;;;;;;;;19.56;57.61;100632.22;2079960;28;20470;-44
2021/10/07 04:47:29;;;;;;;;;;;;;;;19.56;57.69;100624.00;2085117;28;20109;-44
2021/10/07 04:48:29;;;;;;;;;;;;;;;19.56;57.58;100624.00;2087494;28;19951;-44
2021/10/07 04:49:29;;;;;;;;;;;;;;;19.56;57.71;100624.00;2083240;28;20795;-44
2021/10/07 04:50:29;;;;;;;;;;;;;;;19.55;57.71;100627.75;2082014;28;19932;-43
2021/10/07 04:51:30;;;;;;;;;;;;;;;19.56;57.70;100626.75;2083773;28;19924;-43
2021/10/07 04:52:30;;;;;;;;;;;;;;;19.55;57.58;100625.03;2082848;28;20137;-43
2021/10/07 04:53:31;;;;;;;;;;;;;;;19.55;57.60;100626.88;2085586;28;20226;-43
2021/10/07 04:54:31;;;;;;;;;;;;;;;19.54;57.69;100623.28;2083889;28;19916;-43
2021/10/07 04:55:31;;;;;;;;;;;;;;;19.55;57.70;100629.59;2085249;28;19921;-44
2021/10/07 04:56:32;;;;;;;;;;;;;;;19.55;57.70;100627.75;2084015;28;19922;-44
2021/10/07 04:57:32;;;;;;;;;;;;;;;19.54;57.76;100625.16;2082767;28;20351;-44
2021/10/07 04:58:33;;;;;;;;;;;;;;;19.54;57.67;100626.00;2081823;28;19905;-44
2021/10/07 04:59:33;;;;;;;;;;;;;;;19.53;57.58;100624.28;2084933;28;19920;-44
2021/10/07 05:00:34;;;;;;;;;;;;;;;19.54;57.72;100631.47;2081667;28;19948;-43
2021/10/07 05:01:34;;;;;;;;;;;;;;;19.54;57.80;100628.75;2082254;28;20601;-43
2021/10/07 05:02:35;;;;;;;;;;;;;;;19.54;57.71;100628.75;2084529;28;20143;-44
2021/10/07 05:03:36;;;;;;;;;;;;;;;19.55;57.69;100633.22;2083389;28;20234;-44
2021/10/07 05:04:36;;;;;;;;;;;;;;;19.54;57.76;100628.75;2085744;28;19908;-43
2021/10/07 05:05:36;;;;;;;;;;;;;;;19.53;57.81;100632.50;2086076;28;19916;-44
2021/10/07 05:06:37;;;;;;;;;;;;;;;19.54;57.67;100628.75;2083026;28;19916;-44
2021/10/07 05:07:39;;;;;;;;;;;;;;;19.54;57.45;100626.00;2086201;28;20592;-44
2021/10/07 05:08:39;;;;;;;;;;;;;;;19.53;57.54;100628.91;2082402;28;19974;-43
2021/10/07 05:09:40;;;;;;;;;;;;;;;19.53;57.37;100621.56;2083778;28;19920;-43
2021/10/07 05:10:40;;;;;;;;;;;;;;;19.52;57.55;100628.00;2088414;28;19987;-44
2021/10/07 05:11:40;;;;;;;;;;;;;;;19.52;57.37;100628.00;2089072;28;19920;-44
2021/10/07 05:12:41;;;;;;;;;;;;;;;19.52;57.39;100628.00;2085831;28;19948;-43
2021/10/07 05:13:41;;;;;;;;;;;;;;;19.52;57.35;100622.53;2084885;28;20401;-43
2021/10/07 05:14:41;;;;;;;;;;;;;;;19.51;57.43;100615.38;2087276;28;19912;-44